Archival Weather

Chicago O'Hare International

Chicago, Illinois (KORD)

Report from: Saturday, March 5, 2022 5:51 PM CST
Current time: Saturday, February 4, 2023 10:51 PM CST

Current weather
Weather history
Weather forecast

Temperature18.9°C (66.0°F)
Dew point10.6°C (51.1°F)
Winds 16 kts (8.2 m/s, 18.4 mph) South (190°)
Wind gusts 29 kts (14.9 m/s, 33.4 mph)
Peak wind 38 kts (19.5 m/s, 43.7 mph) South (180°) at 17:17
Visibility10 mi. (16.1 km)
Clouds Ceiling: Broken clouds 8,000 ft. (2,438 m)
Altimeter29.70 in.Hg (1006 mB)
Relative humidity59 %
Density altitude892 ft. (272 m)
Sea-level pressure100.6 kPa (1006 mB, 29.70 in.Hg)
Max temp last 6 hours20.6°C (69.1°F)
Min temp last 6 hours17.8°C (64.0°F)
Remarks System requires maintenance
Automated weather observing station with precipitation discriminator
Pressure falling, then rising
Flight conditions Visual Meteorological Conditions
Raw dataKORD 052351Z 19016G29KT 10SM BKN080 19/11 A2970 RMK AO2 PK WND 18038/2317 SLP058 T01890106 10206 20178 55018 $
An unhandled exception has occurred. See browser dev tools for details. Reload 🗙